Time;durP1;ratioP1;P1;durP2;ratioP2;P2;SDS_P1;SDS_P2;PMS_P1;PMS_P2;Temp;Humidity;BMP_temperature;BMP_pressure;BME280_temperature;BME280_humidity;BME280_pressure;Samples;Min_cycle;Max_cycle;Signal;HPM_P1;HPM_P2
2023/06/14 00:00:52;;;;;;;;;18.67;17.67;;;;;24.75;36.99;100640.56;4941024;28;45474;-75
2023/06/14 00:03:18;;;;;;;;;21.33;17.67;;;;;24.71;37.10;100631.25;4941081;28;45426;-75
2023/06/14 00:05:43;;;;;;;;;18.67;18.67;;;;;24.86;36.79;100669.63;4957703;28;46407;-73
2023/06/14 00:08:09;;;;;;;;;18.67;17.67;;;;;24.80;37.17;100654.25;4958185;28;45219;-77
2023/06/14 00:10:36;;;;;;;;;19.00;19.00;;;;;24.70;36.69;100645.91;4958040;28;45296;-80
2023/06/14 00:13:03;;;;;;;;;21.33;18.00;;;;;24.16;36.83;100563.69;4958564;28;45231;-74
2023/06/14 00:15:30;;;;;;;;;22.33;19.00;;;;;24.67;36.90;100659.97;4940791;28;48452;-75
2023/06/14 00:17:56;;;;;;;;;18.00;16.00;;;;;24.32;37.29;100600.22;4940819;28;45382;-74
2023/06/14 00:20:22;;;;;;;;;18.00;17.00;;;;;24.36;37.50;100621.22;4957498;28;45533;-75
2023/06/14 00:22:47;;;;;;;;;19.00;19.00;;;;;24.55;37.50;100641.78;4958158;28;45340;-76
2023/06/14 00:25:13;;;;;;;;;19.67;17.00;;;;;24.64;37.14;100666.72;4957818;28;46411;-76
2023/06/14 00:27:38;;;;;;;;;17.67;17.00;;;;;24.53;37.69;100648.53;4957687;28;45265;-75
2023/06/14 00:30:04;;;;;;;;;19.00;16.67;;;;;24.58;37.48;100664.94;4957722;28;45323;-74
2023/06/14 00:32:29;;;;;;;;;18.00;17.00;;;;;24.53;38.07;100670.25;4957984;28;45553;-75
2023/06/14 00:34:55;;;;;;;;;20.67;19.33;;;;;24.54;37.99;100664.59;4940284;28;46443;-75
2023/06/14 00:37:20;;;;;;;;;19.67;16.67;;;;;24.52;38.13;100669.44;4958989;28;60591;-76
2023/06/14 00:39:45;;;;;;;;;20.00;17.00;;;;;24.53;37.88;100679.25;4961467;28;45624;-75
2023/06/14 00:42:11;;;;;;;;;20.67;19.33;;;;;24.09;38.36;100614.63;4961373;28;47797;-74
2023/06/14 00:44:36;;;;;;;;;19.33;19.00;;;;;24.36;38.23;100653.84;4961885;28;46218;-78
2023/06/14 00:47:01;;;;;;;;;17.33;17.33;;;;;24.46;37.92;100670.41;4944084;28;57851;-78
2023/06/14 00:49:29;;;;;;;;;18.67;16.33;;;;;24.10;38.27;100627.13;4943868;28;45350;-74
2023/06/14 00:51:55;;;;;;;;;17.00;15.67;;;;;24.21;38.37;100642.59;4961168;28;45630;-74
2023/06/14 00:54:20;;;;;;;;;18.00;18.00;;;;;24.32;38.44;100668.97;4960960;28;46458;-75
2023/06/14 00:56:45;;;;;;;;;21.00;18.33;;;;;24.12;39.50;100633.16;4960675;28;45305;-74
2023/06/14 00:59:11;;;;;;;;;21.33;19.00;;;;;24.37;38.82;100677.22;4960962;28;45501;-77
2023/06/14 01:01:38;;;;;;;;;17.00;16.67;;;;;24.33;39.24;100681.50;4943724;28;45404;-77
2023/06/14 01:04:04;;;;;;;;;17.33;16.67;;;;;24.29;38.94;100677.59;4960602;28;45645;-75
2023/06/14 01:06:54;;;;;;;;;21.33;19.00;;;;;24.28;38.67;100681.34;4960615;28;45278;-73
2023/06/14 01:09:43;;;;;;;;;19.33;18.00;;;;;24.22;39.17;100674.94;4943322;28;45342;-74
2023/06/14 01:12:18;;;;;;;;;22.00;19.00;;;;;24.03;39.48;100642.69;4961513;28;45358;-76
2023/06/14 01:14:45;;;;;;;;;16.00;14.00;;;;;24.10;38.75;100670.59;4960689;28;45318;-74
2023/06/14 01:17:16;;;;;;;;;21.00;18.33;;;;;24.06;39.68;100666.69;4960516;28;45548;-74
2023/06/14 01:19:43;;;;;;;;;18.33;16.33;;;;;23.90;39.46;100655.44;4961053;28;45629;-74
2023/06/14 01:22:08;;;;;;;;;18.33;17.00;;;;;23.83;39.07;100659.34;4964323;28;45271;-75
2023/06/14 01:24:34;;;;;;;;;20.67;19.33;;;;;23.74;39.63;100645.25;4961236;28;46457;-76
2023/06/14 01:27:02;;;;;;;;;16.33;15.67;;;;;23.89;40.10;100678.22;4960456;28;45263;-76
2023/06/14 01:29:32;;;;;;;;;19.00;17.33;;;;;23.82;39.75;100674.78;4960345;28;45212;-77
2023/06/14 01:31:58;;;;;;;;;24.33;20.33;;;;;23.81;39.72;100683.97;4960739;28;45440;-76
2023/06/14 01:34:24;;;;;;;;;19.33;17.00;;;;;23.80;39.70;100682.31;4960227;28;46223;-76
2023/06/14 01:36:50;;;;;;;;;19.67;18.67;;;;;23.79;40.47;100680.66;4959914;28;45317;-74
2023/06/14 01:39:17;;;;;;;;;21.00;17.33;;;;;23.79;40.30;100688.00;4961298;28;45276;-77
2023/06/14 01:41:44;;;;;;;;;23.67;18.67;;;;;23.79;40.58;100685.28;4943245;28;45421;-75
2023/06/14 01:44:10;;;;;;;;;21.00;20.00;;;;;23.74;40.02;100674.28;4960064;28;46219;-75
2023/06/14 01:46:37;;;;;;;;;20.33;16.67;;;;;23.67;40.42;100666.25;4960675;28;45506;-75
2023/06/14 01:49:02;;;;;;;;;16.33;15.67;;;;;23.70;40.18;100687.50;4959684;28;45307;-75
2023/06/14 01:51:27;;;;;;;;;15.67;15.67;;;;;23.67;40.29;100679.84;4960587;28;45405;-76
2023/06/14 01:53:53;;;;;;;;;14.33;13.67;;;;;23.26;40.41;100621.75;4960107;28;46641;-74
2023/06/14 01:56:18;;;;;;;;;19.00;18.00;;;;;23.59;40.67;100680.97;4959999;28;45295;-75
2023/06/14 01:58:43;;;;;;;;;15.33;13.67;;;;;23.46;40.73;100670.28;4958796;28;45328;-74
2023/06/14 02:01:09;;;;;;;;;17.67;17.67;;;;;23.53;40.62;100684.59;4960378;28;45455;-74
2023/06/14 02:03:34;;;;;;;;;17.00;13.33;;;;;23.36;40.96;100659.97;4959746;28;45789;-75
2023/06/14 02:06:00;;;;;;;;;17.00;16.00;;;;;23.45;41.40;100674.06;4959996;28;45405;-74
2023/06/14 02:08:25;;;;;;;;;19.33;18.67;;;;;23.44;41.26;100677.00;4960521;28;45311;-75
2023/06/14 02:10:51;;;;;;;;;21.00;16.67;;;;;23.44;41.47;100677.00;4943700;28;45248;-73
2023/06/14 02:13:16;;;;;;;;;15.67;14.33;;;;;23.43;41.57;100686.22;4961155;28;45746;-75
2023/06/14 02:15:43;;;;;;;;;21.33;18.00;;;;;23.41;41.29;100678.28;4960001;28;45334;-75
2023/06/14 02:18:09;;;;;;;;;16.00;16.00;;;;;23.40;41.27;100681.22;4959418;28;45366;-77
2023/06/14 02:20:35;;;;;;;;;13.67;13.67;;;;;23.27;41.40;100660.53;4961795;28;45632;-76
2023/06/14 02:23:01;;;;;;;;;15.33;15.33;;;;;23.30;41.42;100677.19;4959603;28;46435;-74
2023/06/14 02:25:27;;;;;;;;;16.00;16.00;;;;;23.34;40.64;100683.78;4959610;28;45295;-77
2023/06/14 02:27:54;;;;;;;;;15.67;15.67;;;;;23.29;41.34;100691.81;4959608;28;45322;-75
2023/06/14 02:30:20;;;;;;;;;17.33;16.33;;;;;23.23;41.37;100681.88;4959891;28;45219;-76
2023/06/14 02:32:45;;;;;;;;;15.00;15.00;;;;;23.24;41.69;100690.84;4959633;28;46228;-75
2023/06/14 02:35:11;;;;;;;;;18.00;16.67;;;;;23.16;41.85;100683.81;4941838;28;65232;-75
2023/06/14 02:37:36;;;;;;;;;17.33;17.33;;;;;22.99;41.90;100666.50;4959902;28;45224;-74
2023/06/14 02:40:02;;;;;;;;;17.67;17.33;;;;;23.14;41.13;100687.81;4942109;28;45248;-75
2023/06/14 02:42:27;;;;;;;;;16.33;16.33;;;;;23.09;41.64;100695.81;4959379;28;45630;-76
2023/06/14 02:44:52;;;;;;;;;16.33;13.67;;;;;22.96;41.42;100702.22;4959418;28;45554;-74
2023/06/14 02:47:18;;;;;;;;;19.00;17.00;;;;;22.90;42.01;100708.56;4942012;28;45354;-76
2023/06/14 02:49:46;;;;;;;;;17.67;15.00;;;;;22.80;41.58;100694.66;4959643;28;45396;-74
2023/06/14 02:52:11;;;;;;;;;18.00;16.67;;;;;22.61;41.78;100683.78;4941391;28;48771;-77
2023/06/14 02:54:37;;;;;;;;;17.33;17.00;;;;;22.69;41.90;100702.50;4941774;28;45316;-75
2023/06/14 02:57:02;;;;;;;;;15.67;15.33;;;;;22.59;41.50;100704.88;4941942;28;45479;-77
2023/06/14 02:59:28;;;;;;;;;16.00;14.33;;;;;22.53;41.73;100697.66;4958953;28;45415;-75
2023/06/14 03:01:53;;;;;;;;;15.33;15.33;;;;;22.44;42.04;100686.28;4941536;28;48215;-75
2023/06/14 03:04:18;;;;;;;;;16.33;14.67;;;;;22.54;42.32;100703.91;4959704;28;45250;-75
2023/06/14 03:06:44;;;;;;;;;17.33;17.33;;;;;22.43;42.12;100697.34;4959617;28;45310;-76
2023/06/14 03:09:09;;;;;;;;;15.67;13.67;;;;;22.39;42.08;100691.53;4959601;28;45196;-76
2023/06/14 03:11:35;;;;;;;;;14.33;13.67;;;;;22.46;41.85;100715.84;4962871;28;46718;-76
2023/06/14 03:14:03;;;;;;;;;14.33;13.67;;;;;22.39;42.16;100715.91;4959236;28;45497;-76
2023/06/14 03:16:29;;;;;;;;;18.00;16.67;;;;;22.16;42.53;100686.72;4959204;28;45293;-75
2023/06/14 03:18:55;;;;;;;;;14.67;13.00;;;;;22.01;42.56;100661.81;4958881;28;45379;-75
2023/06/14 03:21:21;;;;;;;;;17.00;16.00;;;;;21.97;42.08;100657.91;4958457;28;46467;-74
2023/06/14 03:23:48;;;;;;;;;20.67;16.67;;;;;22.19;42.37;100709.81;4959069;28;45389;-75
2023/06/14 03:26:14;;;;;;;;;19.33;17.33;;;;;22.11;42.36;100716.34;4960049;28;45517;-75
2023/06/14 03:28:46;;;;;;;;;16.00;15.00;;;;;21.86;43.07;100683.00;4960330;28;45364;-76
2023/06/14 03:31:12;;;;;;;;;18.33;18.33;;;;;22.11;42.68;100721.78;4959184;28;46596;-74
2023/06/14 03:33:38;;;;;;;;;14.00;14.00;;;;;22.07;43.04;100733.28;4941228;28;45527;-76
2023/06/14 03:36:04;;;;;;;;;20.67;19.00;;;;;22.03;42.81;100732.03;4958380;28;45392;-74
2023/06/14 03:38:30;;;;;;;;;19.67;16.33;;;;;21.62;43.14;100678.34;4958589;28;45254;-76
2023/06/14 03:40:55;;;;;;;;;17.67;17.67;;;;;21.90;43.23;100727.53;4958368;28;46294;-75
2023/06/14 03:43:21;;;;;;;;;17.67;15.67;;;;;21.62;43.63;100683.75;4958599;28;45267;-76
2023/06/14 03:45:46;;;;;;;;;20.33;19.00;;;;;21.87;43.44;100738.78;4958777;28;45504;-75
2023/06/14 03:48:11;;;;;;;;;23.67;19.00;;;;;21.93;43.33;100740.63;4958848;28;45405;-75
2023/06/14 03:50:40;;;;;;;;;22.33;18.00;;;;;21.81;43.08;100721.53;4941211;28;47696;-75
2023/06/14 03:53:06;;;;;;;;;17.00;15.67;;;;;21.72;43.26;100712.03;4958637;28;45323;-75
2023/06/14 03:55:31;;;;;;;;;18.67;18.00;;;;;22.03;43.30;100751.81;4958720;28;45453;-76
2023/06/14 03:57:57;;;;;;;;;18.33;16.67;;;;;21.66;43.05;100687.72;4940829;28;45549;-76
2023/06/14 04:00:23;;;;;;;;;15.67;15.67;;;;;22.07;43.04;100761.16;4940865;28;48406;-76
2023/06/14 04:02:48;;;;;;;;;17.67;15.33;;;;;21.96;43.19;100734.75;4957965;28;45318;-76
2023/06/14 04:05:16;;;;;;;;;16.00;16.00;;;;;21.99;43.45;100750.56;4958401;28;45442;-73
2023/06/14 04:07:44;;;;;;;;;16.00;16.00;;;;;21.63;43.47;100685.44;4958496;28;45517;-76
2023/06/14 04:10:13;;;;;;;;;15.00;12.00;;;;;22.03;43.34;100743.69;4957881;28;45763;-74
2023/06/14 04:12:39;;;;;;;;;22.00;20.67;;;;;22.09;43.07;100764.50;4960704;28;45334;-74
2023/06/14 04:15:11;;;;;;;;;18.67;17.33;;;;;22.10;43.46;100759.91;4961514;28;45539;-76
2023/06/14 04:17:37;;;;;;;;;21.33;17.33;;;;;22.13;43.51;100757.56;4961735;28;45445;-75
2023/06/14 04:20:07;;;;;;;;;20.00;19.00;;;;;21.80;43.37;100706.34;4960049;28;48684;-77
2023/06/14 04:22:34;;;;;;;;;22.00;20.00;;;;;22.16;43.58;100753.59;4943967;28;46073;-75
2023/06/14 04:24:59;;;;;;;;;14.00;14.00;;;;;22.12;43.72;100749.69;4962578;28;45513;-74
2023/06/14 04:27:26;;;;;;;;;20.00;18.67;;;;;22.20;42.99;100760.22;4945407;28;45327;-76
2023/06/14 04:29:59;;;;;;;;;18.00;17.33;;;;;21.83;43.05;100702.38;4961697;28;45708;-75
2023/06/14 04:32:26;;;;;;;;;15.00;14.33;;;;;21.99;43.11;100711.81;4961665;28;45551;-76
2023/06/14 04:34:54;;;;;;;;;16.00;14.33;;;;;22.32;42.86;100765.78;4962560;28;45750;-75
2023/06/14 04:37:23;;;;;;;;;16.00;14.00;;;;;22.36;42.35;100778.66;4961456;28;45605;-74
2023/06/14 04:39:49;;;;;;;;;16.67;16.67;;;;;22.40;42.68;100784.44;4962045;28;45259;-73
2023/06/14 04:42:16;;;;;;;;;18.33;18.33;;;;;22.44;42.97;100785.69;4960310;28;45525;-74
2023/06/14 04:44:43;;;;;;;;;13.33;10.00;;;;;22.47;43.12;100787.97;4961669;28;45366;-74
2023/06/14 04:47:11;;;;;;;;;20.67;17.33;;;;;22.52;42.53;100787.28;4962414;28;45291;-72
2023/06/14 04:49:36;;;;;;;;;19.00;18.67;;;;;22.48;42.74;100778.78;4942938;28;48005;-77
2023/06/14 04:52:02;;;;;;;;;20.33;17.33;;;;;22.56;42.43;100786.63;4960529;28;45319;-77
2023/06/14 04:54:27;;;;;;;;;14.00;14.00;;;;;22.38;41.83;100759.47;4961569;28;45233;-75
2023/06/14 04:56:55;;;;;;;;;22.00;19.67;;;;;22.39;42.63;100758.41;4962105;28;45504;-76
2023/06/14 04:59:22;;;;;;;;;17.00;16.33;;;;;22.17;42.14;100720.88;4963539;28;45700;-75
2023/06/14 05:01:48;;;;;;;;;21.33;20.33;;;;;22.57;42.24;100784.72;4962561;28;45424;-75
2023/06/14 05:04:15;;;;;;;;;15.67;15.00;;;;;22.54;42.13;100772.47;4961172;28;45296;-77
2023/06/14 05:06:50;;;;;;;;;19.00;17.67;;;;;22.63;42.10;100783.88;4960936;28;45432;-75
2023/06/14 05:09:16;;;;;;;;;16.33;16.33;;;;;22.44;42.16;100761.31;4959495;28;45916;-76
2023/06/14 05:11:43;;;;;;;;;20.00;18.33;;;;;22.42;42.29;100766.91;4960450;28;45338;-75
2023/06/14 05:14:09;;;;;;;;;21.67;17.67;;;;;22.56;42.10;100778.47;4960672;28;45563;-74
2023/06/14 05:16:35;;;;;;;;;19.33;17.67;;;;;22.57;41.73;100799.09;4943392;28;45444;-75
2023/06/14 05:19:01;;;;;;;;;15.67;15.67;;;;;22.58;41.68;100778.25;4960127;28;45732;-75
2023/06/14 05:21:26;;;;;;;;;20.67;16.67;;;;;22.64;41.61;100801.78;4960658;28;45599;-75
2023/06/14 05:23:51;;;;;;;;;17.33;15.67;;;;;22.24;41.77;100725.44;4960078;28;45271;-74
2023/06/14 05:26:17;;;;;;;;;16.67;15.67;;;;;22.68;41.71;100790.28;4960379;28;45523;-76
2023/06/14 05:28:42;;;;;;;;;16.67;16.67;;;;;21.93;41.49;100670.22;4959784;28;45512;-75
2023/06/14 05:31:08;;;;;;;;;18.00;17.00;;;;;22.75;41.61;100801.03;4960424;28;45415;-75
2023/06/14 05:33:33;;;;;;;;;17.00;15.33;;;;;22.69;41.25;100793.81;4960199;28;45550;-77
2023/06/14 05:35:59;;;;;;;;;20.67;19.67;;;;;22.68;41.51;100795.69;4961094;28;45371;-77
2023/06/14 05:38:25;;;;;;;;;18.67;17.00;;;;;22.74;41.29;100805.63;4944327;28;48381;-77
2023/06/14 05:40:51;;;;;;;;;17.00;16.00;;;;;22.62;41.17;100777.59;4960957;28;45271;-76
2023/06/14 05:43:16;;;;;;;;;17.33;16.67;;;;;22.84;41.18;100813.31;4944572;28;45306;-76
2023/06/14 05:45:41;;;;;;;;;18.33;15.67;;;;;22.91;41.02;100803.22;4962121;28;45563;-77
2023/06/14 05:48:07;;;;;;;;;20.33;17.67;;;;;23.03;41.13;100803.31;4945138;28;47891;-74
2023/06/14 05:50:33;;;;;;;;;17.00;17.00;;;;;23.13;40.99;100792.78;4961126;28;45136;-77
2023/06/14 05:52:59;;;;;;;;;19.00;17.33;;;;;23.37;40.20;100772.03;4960946;28;45471;-74
2023/06/14 05:55:24;;;;;;;;;16.00;15.33;;;;;23.64;39.76;100778.00;4959952;28;45446;-75
2023/06/14 05:57:50;;;;;;;;;19.00;16.67;;;;;23.88;38.91;100770.78;4959938;28;46065;-76
2023/06/14 06:00:16;;;;;;;;;18.33;17.33;;;;;24.20;38.49;100793.06;4943372;28;45350;-76
2023/06/14 06:02:43;;;;;;;;;18.00;16.33;;;;;24.46;38.30;100802.75;4960263;28;45328;-73
2023/06/14 06:05:12;;;;;;;;;23.00;18.67;;;;;24.76;38.06;100813.50;4959433;28;45638;-74
2023/06/14 06:07:39;;;;;;;;;21.67;18.67;;;;;24.94;37.58;100796.25;4961493;28;46923;-74
2023/06/14 06:10:05;;;;;;;;;18.67;16.33;;;;;24.82;36.63;100723.66;4978414;28;45476;-77
2023/06/14 06:12:32;;;;;;;;;17.00;15.00;;;;;25.13;36.08;100727.91;4977519;28;45510;-75
2023/06/14 06:14:57;;;;;;;;;22.67;19.67;;;;;25.83;35.50;100810.41;4960444;28;45440;-73
2023/06/14 06:17:23;;;;;;;;;14.67;14.67;;;;;26.05;34.78;100820.41;4975829;28;46122;-75
2023/06/14 06:19:48;;;;;;;;;23.33;18.33;;;;;26.18;33.98;100811.09;4978771;28;45594;-74
2023/06/14 06:22:14;;;;;;;;;16.67;16.67;;;;;26.26;34.17;100805.25;4978468;28;45510;-73
2023/06/14 06:24:39;;;;;;;;;15.67;14.67;;;;;26.40;34.23;100800.31;4961180;28;45263;-71
2023/06/14 06:27:05;;;;;;;;;19.33;17.67;;;;;26.59;32.71;100814.53;4976880;28;46394;-72
2023/06/14 06:29:31;;;;;;;;;17.00;16.00;;;;;26.73;33.00;100820.50;4977353;28;45399;-73
2023/06/14 06:31:56;;;;;;;;;15.67;13.33;;;;;26.79;32.50;100812.13;4976321;28;45476;-75
2023/06/14 06:34:21;;;;;;;;;19.00;16.00;;;;;26.80;32.51;100794.69;4976673;28;45448;-73
2023/06/14 06:36:47;;;;;;;;;18.50;16.50;;;;;26.96;31.90;100807.47;4976967;28;45539;-74
2023/06/14 06:39:14;;;;;;;;;22.00;19.67;;;;;27.19;31.93;100825.56;4977884;28;45348;-74
2023/06/14 06:41:40;;;;;;;;;17.33;17.33;;;;;27.29;31.68;100827.63;4977047;28;45498;-72
2023/06/14 06:44:06;;;;;;;;;20.00;18.33;;;;;27.40;31.00;100825.84;4976434;28;45417;-71
2023/06/14 06:46:33;;;;;;;;;18.00;17.33;;;;;27.48;31.37;100828.16;4975525;28;46049;-77
2023/06/14 06:48:58;;;;;;;;;17.00;16.67;;;;;27.61;30.92;100830.47;4959861;28;45469;-72
2023/06/14 06:51:24;;;;;;;;;21.33;17.00;;;;;27.70;30.29;100829.00;4955683;28;45592;-73
2023/06/14 06:53:53;;;;;;;;;15.67;12.67;;;;;27.84;28.79;100837.63;4972235;28;45417;-74
2023/06/14 06:56:19;;;;;;;;;14.00;12.33;;;;;27.76;29.11;100819.78;4977876;28;45894;-74
2023/06/14 06:58:45;;;;;;;;;14.67;14.67;;;;;27.84;29.53;100837.63;4960250;28;45477;-73
2023/06/14 07:01:11;;;;;;;;;15.00;14.67;;;;;27.98;28.84;100832.56;4976014;28;45559;-71
2023/06/14 07:03:37;;;;;;;;;19.67;14.67;;;;;28.02;28.65;100829.06;4978255;28;45326;-73
2023/06/14 07:06:02;;;;;;;;;17.00;16.00;;;;;28.06;28.47;100822.03;4975893;28;47315;-72
2023/06/14 07:08:28;;;;;;;;;16.33;15.67;;;;;28.28;27.15;100837.56;4977692;28;45342;-72
2023/06/14 07:10:53;;;;;;;;;14.00;13.00;;;;;28.32;26.53;100838.69;4977307;28;45706;-73
2023/06/14 07:13:19;;;;;;;;;15.00;15.00;;;;;28.30;26.79;100816.25;4977991;28;45460;-71
2023/06/14 07:15:44;;;;;;;;;14.67;14.67;;;;;28.53;26.21;100850.66;4977716;28;45453;-71
2023/06/14 07:18:10;;;;;;;;;14.00;13.00;;;;;28.57;27.30;100858.06;4976678;28;45280;-72
2023/06/14 07:20:38;;;;;;;;;15.00;15.00;;;;;28.52;26.07;100844.34;4977089;28;45627;-71
2023/06/14 07:23:03;;;;;;;;;17.67;16.33;;;;;28.53;26.27;100837.78;4977750;28;45527;-74
2023/06/14 07:25:29;;;;;;;;;16.33;14.33;;;;;28.65;26.37;100854.88;4977714;28;45520;-72
2023/06/14 07:27:55;;;;;;;;;12.67;12.67;;;;;28.54;26.51;100831.25;4976286;28;45370;-72
2023/06/14 07:30:20;;;;;;;;;15.67;15.33;;;;;28.71;26.23;100851.06;4977345;28;53799;-72
2023/06/14 07:32:46;;;;;;;;;16.33;15.00;;;;;28.79;26.17;100866.19;4960161;28;45537;-71
2023/06/14 07:35:12;;;;;;;;;10.00;9.33;;;;;28.90;25.29;100867.13;4977226;28;45554;-72
2023/06/14 07:37:37;;;;;;;;;18.33;18.33;;;;;28.85;24.62;100859.69;4976885;28;45573;-73
2023/06/14 07:40:06;;;;;;;;;13.33;12.00;;;;;28.90;26.05;100850.69;4977320;28;45222;-72
2023/06/14 07:42:36;;;;;;;;;15.00;14.00;;;;;29.10;25.96;100875.47;4956630;28;45267;-73
2023/06/14 07:45:05;;;;;;;;;15.33;10.67;;;;;28.86;26.09;100822.22;4940461;28;48411;-73
2023/06/14 07:47:31;;;;;;;;;13.00;13.00;;;;;29.25;25.59;100870.09;4956638;28;45515;-72
2023/06/14 07:49:56;;;;;;;;;21.33;17.33;;;;;29.27;26.27;100864.38;4975909;28;45239;-73
2023/06/14 07:52:22;;;;;;;;;7.67;7.67;;;;;29.24;24.81;100865.72;4976908;28;45424;-74
2023/06/14 07:54:47;;;;;;;;;11.33;9.33;;;;;29.23;24.90;100877.72;4977055;28;45485;-72
2023/06/14 07:57:13;;;;;;;;;19.33;18.00;;;;;29.32;25.79;100887.13;4976773;28;45192;-71
2023/06/14 07:59:38;;;;;;;;;20.00;15.67;;;;;29.33;25.53;100872.34;4976840;28;45373;-72
2023/06/14 08:02:04;;;;;;;;;13.00;13.00;;;;;29.48;25.61;100888.06;4977233;28;45386;-72
2023/06/14 08:04:29;;;;;;;;;15.00;13.33;;;;;29.43;25.18;100865.25;4977670;28;45604;-71
2023/06/14 08:06:54;;;;;;;;;13.33;11.33;;;;;28.98;24.80;100788.06;4976408;28;45398;-72
2023/06/14 08:09:20;;;;;;;;;11.33;11.33;;;;;29.56;23.90;100887.53;4969098;28;45460;-71
2023/06/14 08:11:45;;;;;;;;;13.67;11.33;;;;;29.36;24.48;100852.63;4976782;28;45479;-72
2023/06/14 08:14:11;;;;;;;;;15.00;14.00;;;;;29.65;24.72;100888.69;4976798;28;45954;-71
2023/06/14 08:16:37;;;;;;;;;15.00;15.00;;;;;29.72;23.65;100880.22;4976642;28;45459;-73
2023/06/14 08:19:02;;;;;;;;;12.00;12.00;;;;;29.73;24.31;100879.13;4958844;28;45484;-71
2023/06/14 08:21:29;;;;;;;;;13.33;13.33;;;;;29.81;24.07;100873.13;4976645;28;45576;-72
2023/06/14 08:23:57;;;;;;;;;11.00;11.00;;;;;29.85;22.89;100871.50;4976449;28;46287;-72
2023/06/14 08:26:22;;;;;;;;;16.67;14.33;;;;;29.63;23.26;100827.00;4958730;28;45411;-72
2023/06/14 08:28:48;;;;;;;;;12.33;12.33;;;;;29.98;23.45;100873.72;4976814;28;45218;-71
2023/06/14 08:31:13;;;;;;;;;16.33;13.33;;;;;30.11;23.09;100888.88;4972199;28;45370;-72
2023/06/14 08:33:42;;;;;;;;;11.33;11.33;;;;;30.12;23.38;100895.19;4972817;28;46392;-70
2023/06/14 08:36:08;;;;;;;;;15.00;14.00;;;;;30.12;23.44;100889.72;4975142;28;45498;-72
2023/06/14 08:38:33;;;;;;;;;15.33;15.33;;;;;30.08;23.55;100874.91;4976478;28;45867;-71
2023/06/14 08:41:02;;;;;;;;;13.67;13.67;;;;;30.09;21.79;100868.31;4974827;28;46338;-74
2023/06/14 08:43:27;;;;;;;;;12.33;11.33;;;;;30.07;22.33;100878.75;4971273;28;46585;-71
2023/06/14 08:46:00;;;;;;;;;13.00;11.33;;;;;30.20;22.69;100897.41;4961311;28;53647;-71
2023/06/14 08:48:26;;;;;;;;;14.33;14.33;;;;;30.11;22.82;100888.88;4976497;28;45484;-71
2023/06/14 08:51:01;;;;;;;;;12.67;12.00;;;;;30.06;22.10;100886.13;4976172;28;45452;-71
2023/06/14 08:53:28;;;;;;;;;11.33;11.33;;;;;30.07;22.44;100889.72;4971696;28;46795;-72
2023/06/14 08:55:55;;;;;;;;;11.50;11.00;;;;;29.93;22.59;100876.47;4975948;28;45624;-72
2023/06/14 08:58:24;;;;;;;;;14.33;13.33;;;;;30.11;22.66;100894.38;4977137;28;45476;-72
2023/06/14 09:00:52;;;;;;;;;13.33;13.00;;;;;29.61;21.65;100818.25;4962349;28;45469;-72
2023/06/14 09:03:20;;;;;;;;;15.33;13.67;;;;;30.03;21.67;100880.31;4978071;28;47807;-71
2023/06/14 09:05:46;;;;;;;;;16.33;14.33;;;;;29.58;22.21;100796.88;4977551;28;45511;-71
2023/06/14 09:08:12;;;;;;;;;14.00;11.67;;;;;29.97;22.42;100844.66;4978219;28;45508;-71
2023/06/14 09:10:39;;;;;;;;;10.33;10.33;;;;;30.25;21.14;100886.47;4978613;28;45400;-73
2023/06/14 09:13:06;;;;;;;;;13.67;10.67;;;;;30.35;21.49;100897.44;4976167;28;45765;-74
2023/06/14 09:15:32;;;;;;;;;13.00;12.00;;;;;30.29;22.32;100882.06;4974734;28;45503;-74
2023/06/14 09:18:00;;;;;;;;;12.67;12.67;;;;;30.05;21.27;100850.78;4961988;28;45273;-73
2023/06/14 09:20:26;;;;;;;;;13.67;13.67;;;;;30.32;20.89;100895.25;4978718;28;45548;-73
2023/06/14 09:22:51;;;;;;;;;12.33;11.00;;;;;30.27;20.02;100887.00;4960207;28;46601;-71
2023/06/14 09:25:17;;;;;;;;;12.67;12.67;;;;;30.15;20.76;100900.97;4979098;28;45412;-74
2023/06/14 09:27:43;;;;;;;;;11.33;11.00;;;;;30.09;20.92;100903.97;4956694;28;45540;-74
2023/06/14 09:30:09;;;;;;;;;10.67;10.67;;;;;30.11;21.13;100899.03;4977975;28;46391;-73
2023/06/14 09:32:39;;;;;;;;;14.00;13.00;;;;;30.14;20.20;100909.47;4976835;28;48164;-72
2023/06/14 09:35:09;;;;;;;;;10.67;10.67;;;;;30.12;20.29;100898.75;4976906;28;45479;-75
2023/06/14 09:37:37;;;;;;;;;10.67;10.33;;;;;30.02;19.58;100895.13;4977314;28;46165;-71
2023/06/14 09:40:03;;;;;;;;;12.00;12.00;;;;;29.72;19.31;100866.53;4973826;28;45715;-73
2023/06/14 09:42:29;;;;;;;;;13.33;13.33;;;;;29.88;19.09;100900.31;4965012;28;46533;-73
2023/06/14 09:44:56;;;;;;;;;14.33;11.33;;;;;29.86;19.08;100906.06;4978758;28;45492;-72
2023/06/14 09:47:25;;;;;;;;;11.00;9.67;;;;;29.81;19.80;100902.44;4977429;28;45535;-74
2023/06/14 09:49:51;;;;;;;;;9.67;9.67;;;;;29.83;18.81;100903.81;4961119;28;45387;-75
2023/06/14 09:52:21;;;;;;;;;14.00;11.33;;;;;29.83;19.04;100913.97;4976927;28;46359;-73
2023/06/14 09:54:48;;;;;;;;;11.33;10.33;;;;;29.80;20.13;100893.41;4960820;28;45815;-72
2023/06/14 09:57:21;;;;;;;;;13.33;13.33;;;;;29.75;19.30;100901.59;4977810;28;45480;-73
2023/06/14 09:59:50;;;;;;;;;11.00;11.00;;;;;29.64;19.55;100875.28;4971588;28;45381;-74
2023/06/14 10:02:29;;;;;;;;;17.00;11.33;;;;;29.76;20.13;100900.50;4978231;28;46287;-74
2023/06/14 10:05:06;;;;;;;;;12.33;10.33;;;;;29.73;20.60;100906.53;4975800;28;45266;-72
2023/06/14 10:07:37;;;;;;;;;13.67;13.67;;;;;29.81;20.01;100918.88;4976412;28;45504;-76
2023/06/14 10:10:02;;;;;;;;;12.00;12.00;;;;;29.77;19.94;100918.59;4971679;28;45530;-73
2023/06/14 10:12:28;;;;;;;;;12.67;12.67;;;;;29.53;20.16;100862.59;4977638;28;45648;-74
2023/06/14 10:14:55;;;;;;;;;12.33;12.33;;;;;29.63;20.31;100893.63;4960890;28;45758;-74
2023/06/14 10:17:46;;;;;;;;;13.33;12.67;;;;;29.64;19.67;100916.38;4977654;28;45347;-72
2023/06/14 10:20:37;;;;;;;;;10.67;10.67;;;;;29.40;19.79;100894.00;4978136;28;45318;-74
2023/06/14 10:23:22;;;;;;;;;12.33;11.33;;;;;29.50;20.19;100904.22;4959378;28;47558;-75
2023/06/14 10:25:56;;;;;;;;;10.00;9.67;;;;;29.47;20.26;100904.78;4941609;28;45470;-72
2023/06/14 10:28:24;;;;;;;;;13.67;12.33;;;;;29.51;20.19;100911.34;4973832;28;45319;-72
2023/06/14 10:31:04;;;;;;;;;15.00;14.00;;;;;29.52;20.28;100908.34;4977659;28;45431;-72
2023/06/14 10:33:29;;;;;;;;;13.00;11.67;;;;;29.47;20.44;100904.78;4975602;28;45757;-73
2023/06/14 10:36:26;;;;;;;;;12.67;12.67;;;;;29.51;20.26;100906.69;4959980;28;45386;-72
2023/06/14 10:39:00;;;;;;;;;10.67;10.33;;;;;29.11;20.25;100847.00;4978032;28;45344;-72
2023/06/14 10:41:29;;;;;;;;;12.33;12.00;;;;;29.49;20.53;100902.59;4960692;28;45874;-74
2023/06/14 10:44:13;;;;;;;;;15.67;15.67;;;;;29.47;20.28;100888.34;4977669;28;46656;-73
2023/06/14 10:46:40;;;;;;;;;15.67;15.67;;;;;29.36;20.38;100912.88;4977603;28;45419;-74
2023/06/14 10:49:06;;;;;;;;;13.00;12.67;;;;;29.27;20.85;100900.78;4978094;28;45519;-73
2023/06/14 10:51:46;;;;;;;;;13.00;13.00;;;;;28.95;20.31;100870.72;4976579;28;45476;-72
2023/06/14 10:54:15;;;;;;;;;13.33;12.00;;;;;29.03;20.60;100883.06;4977686;28;46279;-72
2023/06/14 10:56:49;;;;;;;;;15.00;14.33;;;;;28.99;20.81;100893.72;4977027;28;45378;-72
2023/06/14 10:59:15;;;;;;;;;14.00;13.00;;;;;28.77;20.94;100858.22;4976449;28;45425;-70
2023/06/14 11:02:12;;;;;;;;;15.67;13.00;;;;;28.59;21.75;100846.84;4977290;28;45512;-73
2023/06/14 11:04:56;;;;;;;;;15.67;15.33;;;;;28.90;21.59;100903.53;4957577;28;45567;-70
2023/06/14 11:07:33;;;;;;;;;13.00;12.00;;;;;28.94;22.06;100903.81;4967991;28;45502;-73
2023/06/14 11:10:37;;;;;;;;;11.00;11.00;;;;;28.93;21.76;100900.25;4942593;28;45359;-72